Flight Track Log - Related Links

Times and Time Zones

All times are in EDT time to prevent confusion due to time zone crossing. See the SKW6345 flight status page for this flight to view local times or setup timezone preferences in your user account.

Time Position Orientation Groundspeed Altitude Reporting Facility
EDT Latitude Longitude Course Direction KTS km/h feet Rate Location/Type
Mon 11:35:23 39.8400 -104.7492 233° Southwest 196 364 6,200  Level Denver Center
Mon 11:36:25 39.8192 -104.8353 253° West 242 447 8,000 2,032 Climbing Denver Center
Mon 11:37:00 39.6766 -104.3741 205° Southwest  Level FlightAware Approximate
Mon 11:37:27 39.7492 -104.8747 203° Southwest 284 526 10,400  Level Denver Center
Mon 11:38:00 39.5719 -104.4461 210° Southwest  Level FlightAware Approximate
Mon 11:39:00 39.4669 -104.5164 218° Southwest  Level FlightAware Approximate
Mon 11:39:01 39.6167 -104.9167 194° South 331 613 13,900  Level Denver TRACON
Mon 11:40:00 39.3813 -104.6202 233° Southwest  Level FlightAware Approximate
Mon 11:40:32 39.4911 -104.9544 193° South 344 637 17,100  Level Denver Center
Mon 11:41:35 39.3775 -104.9892 193° South 343 636 19,500 2,053 Climbing Denver Center
Mon 11:43:00 39.2600 -105.1445 226° Southwest  Level Estimated
Mon 11:43:39 39.1742 -105.0508 226° Southwest 361 668 23,500  Level Denver Center
Mon 11:45:00 39.0637 -105.2004 201° Southwest  Level Estimated
Mon 11:45:43 38.9797 -105.1664 201° Southwest 372 689 26,800  Level Denver Center
Mon 11:47:00 38.8429 -105.2476 205° Southwest  Level FlightAware Approximate
Mon 11:47:47 38.7858 -105.2894 205° Southwest 388 719 29,300  Level Denver Center
Mon 11:48:49 38.6861 -105.3533 207° Southwest 396 734 30,200 1,113 Climbing Denver Center
Mon 11:49:51 38.5842 -105.4167 206° Southwest 402 745 31,600 1,306 Climbing Denver Center
Mon 11:50:53 38.4839 -105.4808 207° Southwest 400 740 32,900 1,403 Climbing Denver Center
Mon 11:51:55 38.3689 -105.5553 207° Southwest 393 727 34,500 1,161 Climbing Denver Center
Mon 11:52:57 38.2803 -105.6092 206° Southwest 386 715 35,300 823 Climbing Denver Center
Mon 11:53:59 38.1725 -105.6769 206° Southwest 386 715 36,200 720 Climbing Denver Center
Mon 11:55:02 38.0789 -105.7347 206° Southwest 389 721 36,800 545 Climbing Denver Center
Mon 11:57:17 37.9064 -105.9122 219° Southwest 386 715 38,000 364 Climbing Denver Center
Mon 11:58:20 37.8053 -106.0386 225° Southwest 399 739 38,000  Level Denver Center
Mon 11:59:22 37.7278 -106.1381 225° Southwest 412 763 38,000  Level Denver Center
Mon 12:01:00 37.5846 -106.3033 225° Southwest  Level FlightAware Approximate
Mon 12:02:21 37.4839 -106.4422 224° Southwest 443 821 38,000  Level Albuquerque Center
Mon 12:02:41 37.4592 -106.4761 227° Southwest 410 760 38,000  Level Denver Center
Mon 12:04:24 37.3142 -106.6528 224° Southwest 411 761 38,000  Level Albuquerque Center
Mon 12:05:47 37.1992 -106.7981 225° Southwest 412 763 38,000  Level Denver Center
Mon 12:06:49 37.1233 -106.8958 226° Southwest 410 760 38,000  Level Denver Center
Mon 12:08:00 36.9928 -107.0358 224° Southwest  Level FlightAware Approximate
Mon 12:08:32 36.9797 -107.0733 225° Southwest 412 763 38,000  Level Albuquerque Center
Mon 12:09:33 36.9014 -107.1689 224° Southwest 411 761 38,000  Level Albuquerque Center
Mon 12:10:35 36.8108 -107.2806 225° Southwest 410 760 38,000  Level Albuquerque Center
Mon 12:11:37 36.7325 -107.3769 225° Southwest 411 761 38,000  Level Albuquerque Center
Mon 12:11:59 36.6931 -107.4231 223° Southwest 412 763 38,000  Level Denver Center
Mon 12:13:01 36.6142 -107.5186 224° Southwest 412 763 38,000  Level Denver Center
Mon 12:14:03 36.5228 -107.6300 224° Southwest 413 764 38,000  Level Denver Center
Mon 12:15:05 36.4431 -107.7258 224° Southwest 415 769 38,000  Level Denver Center
Mon 12:16:47 36.2978 -107.9017 224° Southwest 414 766 38,000  Level Albuquerque Center
Mon 12:17:09 36.2719 -107.9331 224° Southwest 413 764 38,000  Level Denver Center
Mon 12:18:11 36.1917 -108.0283 224° Southwest 415 769 38,000  Level Denver Center
Mon 12:19:52 36.0469 -108.2064 225° Southwest 415 769 38,000 -24 Level Albuquerque Center
Mon 12:22:20 35.8497 -108.4544 226° Southwest 421 779 37,900 -161 Descending Denver Center
Mon 12:22:58 35.7961 -108.5219 226° Southwest 424 785 37,500 -960 Descending Albuquerque Center
Mon 12:24:00 35.6989 -108.6436 225° Southwest 437 810 36,300 -290 Descending Albuquerque Center
Mon 12:27:00 35.5696 -108.7874 225° Southwest  Level FlightAware Approximate
Mon 12:28:08 35.3572 -109.0681 225° Southwest 435 806 36,000  Level Albuquerque Center
Mon 12:30:00 35.2091 -109.2459 224° Southwest  Level FlightAware Approximate
Mon 12:31:14 35.0850 -109.4028 246° West 430 797 36,000  Level Albuquerque Center
Mon 12:33:00 34.9676 -109.5948 233° Southwest  Level Estimated
Mon 12:34:21 34.8319 -109.7061 237° Southwest 420 777 36,000  Level Albuquerque Center
Mon 12:36:25 34.7050 -109.9492 238° Southwest 413 764 36,000  Level Albuquerque Center
Mon 12:37:00 34.6721 -109.9246 246° West  Level FlightAware Approximate
Mon 12:37:27 34.6536 -110.0683 242° Southwest 413 764 36,000  Level Albuquerque Center
Mon 12:38:29 34.5972 -110.2089 244° Southwest 415 769 35,900 -1,548 Descending Albuquerque Center
Mon 12:39:31 34.5464 -110.3214 241° Southwest 403 747 32,800 -2,855 Descending Albuquerque Center
Mon 12:40:00 34.5036 -110.3435 237° Southwest  Level Estimated
Mon 12:40:33 34.4897 -110.4422 240° Southwest 391 724 30,000  Level Albuquerque Center
Mon 12:41:35 34.4506 -110.5528 247° West 367 679 30,000 -992 Level Albuquerque Center
Mon 12:43:00 34.3777 -110.7199 242° Southwest  Level FlightAware Approximate
Mon 12:44:41 34.2906 -110.8794 239° Southwest 359 665 25,900  Level Albuquerque Center
Mon 12:45:43 34.2281 -110.9589 226° Southwest 336 623 24,000 -1,839 Descending Albuquerque Center
Mon 12:46:45 34.1664 -111.0397 227° Southwest 328 607 22,100 -1,839 Descending Albuquerque Center
Mon 12:47:47 34.1011 -111.1236 227° Southwest 337 624 20,200 -1,839 Descending Albuquerque Center
Mon 12:48:49 34.0353 -111.2072 226° Southwest 342 634 18,300 -1,537 Descending Albuquerque Center
Mon 12:50:00 33.8626 -111.4082 239° Southwest  Level FlightAware Approximate
Mon 12:51:00 33.9315 -111.3260 224° Southwest  Level FlightAware Approximate
Mon 12:51:49 33.8667 -111.4500 224° Southwest 279 517 14,000  Level Phoenix TRACON
Mon 12:52:49 33.8167 -111.5167 228° Southwest 287 531 13,500 -1,062 Descending Phoenix TRACON
Mon 12:53:59 33.7708 -111.6131 240° Southwest 285 528 11,700 -1,591 Descending Albuquerque Center
Mon 12:55:01 33.7311 -111.6903 238° Southwest 272 504 10,000 -1,210 Descending Albuquerque Center
Mon 12:56:03 33.6939 -111.7583 237° Southwest 243 451 9,200 -484 Descending Albuquerque Center
Mon 12:57:05 33.6594 -111.8214 237° Southwest 228 422 9,000 -96 Descending Albuquerque Center
Mon 12:58:08 33.6244 -111.8839 236° Southwest 224 415 9,000 -325 Level Albuquerque Center
Mon 12:59:51 33.5667 -112.0000 239° Southwest 223 414 8,100 -645 Descending Phoenix TRACON
Mon 13:01:14 33.5258 -112.0897 241° Southwest 224 415 7,000 -828 Descending Albuquerque Center
Mon 13:02:16 33.5256 -112.1661 270° West 228 422 6,100 -1,161 Descending Albuquerque Center
Mon 13:03:18 33.4783 -112.1939 206° Southwest 225 417 4,600 -1,113 Descending Albuquerque Center
Mon 13:04:20 33.4450 -112.1375 125° Southeast 210 389 3,800 -1,258 Descending Albuquerque Center
Mon 13:05:22 33.4403 -112.0756 95° East 156 290 2,000 -1,742 Descending Albuquerque Center

Login

Don't have an account? Register now (free) for customized features, flight alerts, and more!